createdAt,value
2018-12-30T00:01:46.544Z,7.02
2018-12-30T00:04:17.793Z,7.11
2018-12-30T00:06:48.961Z,7.10
2018-12-30T00:09:19.951Z,7.15
2018-12-30T00:11:50.919Z,7.13
2018-12-30T00:14:21.952Z,7.15
2018-12-30T00:16:52.828Z,7.19
2018-12-30T00:19:23.752Z,7.15
2018-12-30T00:21:55.019Z,7.21
2018-12-30T00:24:26.289Z,7.16
2018-12-30T00:26:57.593Z,7.10
2018-12-30T00:29:28.470Z,7.20
2018-12-30T00:31:59.775Z,7.13
2018-12-30T00:34:30.789Z,7.19
2018-12-30T00:37:01.900Z,7.19
2018-12-30T00:39:32.918Z,7.16
2018-12-30T00:42:03.884Z,7.28
2018-12-30T00:44:34.851Z,7.35
2018-12-30T00:47:05.921Z,7.33
2018-12-30T00:49:36.938Z,7.38
2018-12-30T00:52:07.918Z,7.34
2018-12-30T00:54:39.180Z,7.38
2018-12-30T00:57:10.198Z,7.40
2018-12-30T00:59:41.199Z,7.41
2018-12-30T01:02:12.201Z,7.37
2018-12-30T01:04:43.176Z,7.31
2018-12-30T01:07:14.266Z,7.41
2018-12-30T01:09:45.265Z,7.40
2018-12-30T01:12:16.522Z,7.46
2018-12-30T01:14:47.577Z,7.43
2018-12-30T01:17:18.819Z,7.51
2018-12-30T01:19:49.807Z,7.49
2018-12-30T01:22:20.808Z,7.58
2018-12-30T01:24:51.831Z,7.50
2018-12-30T01:27:22.814Z,7.52
2018-12-30T01:29:54.096Z,7.41
2018-12-30T01:32:25.120Z,7.49
2018-12-30T01:34:56.875Z,7.50
2018-12-30T01:37:27.850Z,7.56
2018-12-30T01:39:58.817Z,7.50
2018-12-30T01:42:29.832Z,7.53
2018-12-30T01:45:00.812Z,7.52
2018-12-30T01:47:32.306Z,7.50
2018-12-30T01:50:03.353Z,7.48
2018-12-30T01:52:34.394Z,7.51
2018-12-30T01:55:05.559Z,7.58
2018-12-30T01:57:36.823Z,7.59
2018-12-30T02:00:08.165Z,7.54
2018-12-30T02:02:39.140Z,7.45
2018-12-30T02:05:10.164Z,7.34
2018-12-30T02:07:41.165Z,7.25
2018-12-30T02:10:12.539Z,7.19
2018-12-30T02:12:43.509Z,7.17
2018-12-30T02:15:14.843Z,7.07
2018-12-30T02:17:45.785Z,7.02
2018-12-30T02:20:17.546Z,6.97
2018-12-30T02:22:48.541Z,6.84
2018-12-30T02:25:19.495Z,6.83
2018-12-30T02:27:50.451Z,6.75
2018-12-30T02:30:21.400Z,6.84
2018-12-30T02:32:52.427Z,6.74
2018-12-30T02:35:23.730Z,6.78
2018-12-30T02:37:54.709Z,6.80
2018-12-30T02:40:25.734Z,6.79
2018-12-30T02:42:56.672Z,6.77
2018-12-30T02:45:27.978Z,6.79
2018-12-30T02:47:58.947Z,6.75
2018-12-30T02:50:30.283Z,6.70
2018-12-30T02:53:01.538Z,6.69
2018-12-30T02:55:32.837Z,6.64
2018-12-30T02:58:03.773Z,6.65
2018-12-30T03:00:34.766Z,6.61
2018-12-30T03:03:06.154Z,6.58
2018-12-30T03:05:37.045Z,6.56
2018-12-30T03:08:08.012Z,6.64
2018-12-30T03:10:38.893Z,6.58
2018-12-30T03:13:09.831Z,6.59
2018-12-30T03:15:40.722Z,6.58
2018-12-30T03:18:11.600Z,6.63
2018-12-30T03:20:42.573Z,6.65
2018-12-30T03:23:13.816Z,6.69
2018-12-30T03:25:44.750Z,6.63
2018-12-30T03:28:15.654Z,6.59
2018-12-30T03:30:47.078Z,6.64
2018-12-30T03:33:18.000Z,6.59
2018-12-30T03:35:48.863Z,6.59
2018-12-30T03:38:19.749Z,6.59
2018-12-30T03:40:50.672Z,6.59
2018-12-30T03:43:21.565Z,6.55
2018-12-30T03:45:52.514Z,6.54
2018-12-30T03:48:23.450Z,6.52
2018-12-30T03:50:54.367Z,6.52
2018-12-30T03:53:25.291Z,6.42
2018-12-30T03:55:56.203Z,6.50
2018-12-30T03:58:27.174Z,6.51
2018-12-30T04:00:58.100Z,6.52
2018-12-30T04:03:28.983Z,6.49
2018-12-30T04:05:59.877Z,6.47
2018-12-30T04:08:30.751Z,6.49
2018-12-30T04:11:02.256Z,6.53
2018-12-30T04:13:33.139Z,6.42
2018-12-30T04:16:04.081Z,6.38
2018-12-30T04:18:35.034Z,6.34
2018-12-30T04:21:05.919Z,6.41
2018-12-30T04:23:36.845Z,6.44
2018-12-30T04:26:08.038Z,6.39
2018-12-30T04:28:38.927Z,6.35
2018-12-30T04:31:09.821Z,6.43
2018-12-30T04:33:41.007Z,6.32
2018-12-30T04:36:12.024Z,6.38
2018-12-30T04:38:42.909Z,6.35
2018-12-30T04:41:13.882Z,6.34
2018-12-30T04:43:44.793Z,6.28
2018-12-30T04:46:15.984Z,6.34
2018-12-30T04:48:47.013Z,6.24
2018-12-30T04:51:18.262Z,6.37
2018-12-30T04:53:49.467Z,6.39
2018-12-30T04:56:20.375Z,6.39
2018-12-30T04:58:51.242Z,6.36
2018-12-30T05:01:22.152Z,6.44
2018-12-30T05:03:53.040Z,6.49
2018-12-30T05:06:23.920Z,6.51
2018-12-30T05:08:55.117Z,6.57
2018-12-30T05:11:26.318Z,6.52
2018-12-30T05:13:57.222Z,6.49
2018-12-30T05:16:28.093Z,6.44
2018-12-30T05:18:59.047Z,6.47
2018-12-30T05:21:30.559Z,6.54
2018-12-30T05:24:01.814Z,6.51
2018-12-30T05:26:33.022Z,6.61
2018-12-30T05:29:03.905Z,6.59
2018-12-30T05:31:34.775Z,6.63
2018-12-30T05:34:05.977Z,6.60
2018-12-30T05:36:36.849Z,6.60
2018-12-30T05:39:08.722Z,6.48
2018-12-30T05:41:39.589Z,6.54
2018-12-30T05:44:10.461Z,6.56
2018-12-30T05:46:42.069Z,6.55
2018-12-30T05:49:12.940Z,6.65
2018-12-30T05:51:43.881Z,6.62
2018-12-30T05:54:14.778Z,6.58
2018-12-30T05:56:45.694Z,6.57
2018-12-30T05:59:16.667Z,6.58
2018-12-30T06:01:47.580Z,6.68
2018-12-30T06:04:18.506Z,6.67
2018-12-30T06:06:49.665Z,6.60
2018-12-30T06:09:20.570Z,6.69
2018-12-30T06:11:51.550Z,6.59
2018-12-30T06:14:22.439Z,6.71
2018-12-30T06:16:53.351Z,6.75
2018-12-30T06:19:24.510Z,6.72
2018-12-30T06:21:55.389Z,6.72
2018-12-30T06:24:26.360Z,6.86
2018-12-30T06:26:57.259Z,6.72
2018-12-30T06:29:28.461Z,6.70
2018-12-30T06:31:59.644Z,6.75
2018-12-30T06:34:30.539Z,6.71
2018-12-30T06:37:01.482Z,6.69
2018-12-30T06:39:32.657Z,6.65
2018-12-30T06:42:03.588Z,6.69
2018-12-30T06:44:34.478Z,6.69
2018-12-30T06:47:05.363Z,6.78
2018-12-30T06:49:36.297Z,6.68
2018-12-30T06:52:07.555Z,6.64
2018-12-30T06:54:38.753Z,6.74
2018-12-30T06:57:09.690Z,6.67
2018-12-30T06:59:40.568Z,6.76
2018-12-30T07:02:11.459Z,6.74
2018-12-30T07:04:42.356Z,6.68
2018-12-30T07:07:13.282Z,6.71
2018-12-30T07:09:44.166Z,6.67
2018-12-30T07:12:15.343Z,6.70
2018-12-30T07:14:46.262Z,6.55
2018-12-30T07:17:17.216Z,6.59
2018-12-30T07:19:48.380Z,6.66
2018-12-30T07:22:19.273Z,6.60
2018-12-30T07:24:50.747Z,6.62
2018-12-30T07:27:21.723Z,6.68
2018-12-30T07:29:52.599Z,6.59
2018-12-30T07:32:23.916Z,6.76
2018-12-30T07:34:54.797Z,6.61
2018-12-30T07:37:26.052Z,6.65
2018-12-30T07:39:57.274Z,6.69
2018-12-30T07:42:28.211Z,6.74
2018-12-30T07:44:59.209Z,6.74
2018-12-30T07:47:30.086Z,6.66
2018-12-30T07:50:01.016Z,6.63
2018-12-30T07:52:32.039Z,6.63
2018-12-30T07:55:02.946Z,6.52
2018-12-30T07:57:33.870Z,6.51
2018-12-30T08:00:05.344Z,6.59
2018-12-30T08:02:36.214Z,6.61
2018-12-30T08:05:07.161Z,6.74
2018-12-30T08:07:38.392Z,6.69
2018-12-30T08:10:09.615Z,6.71
2018-12-30T08:12:40.486Z,6.67
2018-12-30T08:15:11.656Z,6.76
2018-12-30T08:17:42.662Z,6.65
2018-12-30T08:20:13.680Z,6.70
2018-12-30T08:22:44.597Z,6.62
2018-12-30T08:25:15.476Z,6.58
2018-12-30T08:27:46.684Z,6.60
2018-12-30T08:30:17.872Z,6.63
2018-12-30T08:32:48.758Z,6.67
2018-12-30T08:35:19.738Z,6.52
2018-12-30T08:37:51.032Z,6.69
2018-12-30T08:40:21.930Z,6.66
2018-12-30T08:42:53.133Z,6.58
2018-12-30T08:45:24.009Z,6.77
2018-12-30T08:47:55.308Z,6.88
2018-12-30T08:50:26.206Z,6.92
2018-12-30T08:52:57.410Z,7.68
2018-12-30T08:55:28.384Z,7.57
2018-12-30T08:57:59.255Z,7.58
2018-12-30T09:00:30.164Z,7.31
2018-12-30T09:03:01.061Z,7.20
2018-12-30T09:05:31.972Z,7.16
2018-12-30T09:08:03.238Z,7.02
2018-12-30T09:10:34.421Z,6.97
2018-12-30T09:13:05.333Z,6.95
2018-12-30T09:15:36.195Z,6.93
2018-12-30T09:18:07.165Z,7.02
2018-12-30T09:20:38.060Z,7.03
2018-12-30T09:23:09.405Z,6.97
2018-12-30T09:25:40.642Z,7.09
2018-12-30T09:28:11.500Z,7.07
2018-12-30T09:30:42.399Z,7.12
2018-12-30T09:33:13.271Z,7.37
2018-12-30T09:35:44.279Z,7.50
2018-12-30T09:38:15.171Z,7.47
2018-12-30T09:40:46.058Z,7.49
2018-12-30T09:43:16.988Z,7.54
2018-12-30T09:45:48.313Z,7.74
2018-12-30T09:48:19.273Z,8.11
2018-12-30T09:50:50.539Z,8.21
2018-12-30T09:53:21.519Z,8.45
2018-12-30T09:55:52.501Z,8.58
2018-12-30T09:58:23.451Z,8.45
2018-12-30T10:00:54.388Z,8.34
2018-12-30T10:03:25.553Z,8.54
2018-12-30T10:05:56.732Z,8.33
2018-12-30T10:08:27.834Z,8.15
2018-12-30T10:10:58.706Z,8.09
2018-12-30T10:13:29.921Z,8.20
2018-12-30T10:16:00.846Z,8.26
2018-12-30T10:18:31.809Z,8.07
2018-12-30T10:21:02.781Z,8.12
2018-12-30T10:23:33.749Z,8.02
2018-12-30T10:26:05.184Z,8.14
2018-12-30T10:28:36.436Z,7.97
2018-12-30T10:31:07.443Z,8.16
2018-12-30T10:33:38.706Z,8.16
2018-12-30T10:36:09.910Z,8.10
2018-12-30T10:38:40.836Z,8.09
2018-12-30T10:41:11.771Z,8.05
2018-12-30T10:43:43.291Z,8.09
2018-12-30T10:46:14.489Z,8.15
2018-12-30T10:48:45.420Z,8.17
2018-12-30T10:51:16.354Z,7.93
2018-12-30T10:53:47.317Z,8.00
2018-12-30T10:56:18.210Z,7.98
2018-12-30T10:58:49.223Z,8.02
2018-12-30T11:01:20.098Z,7.93
2018-12-30T11:03:51.018Z,8.02
2018-12-30T11:06:21.972Z,7.88
2018-12-30T11:08:52.999Z,7.94
2018-12-30T11:11:23.940Z,7.92
2018-12-30T11:13:54.850Z,7.87
2018-12-30T11:16:26.134Z,7.91
2018-12-30T11:18:57.017Z,7.93
2018-12-30T11:21:27.964Z,7.91
2018-12-30T11:23:58.873Z,7.87
2018-12-30T11:26:30.084Z,7.85
2018-12-30T11:29:01.004Z,7.89
2018-12-30T11:31:32.204Z,7.99
2018-12-30T11:34:03.083Z,8.09
2018-12-30T11:36:34.086Z,8.15
2018-12-30T11:39:06.280Z,8.07
2018-12-30T11:41:37.252Z,8.07
2018-12-30T11:44:08.118Z,8.03
2018-12-30T11:46:39.056Z,8.12
2018-12-30T11:49:10.334Z,8.10
2018-12-30T11:51:41.261Z,8.12
2018-12-30T11:54:16.442Z,8.08
2018-12-30T11:56:45.358Z,8.05
2018-12-30T11:59:16.850Z,8.10
2018-12-30T12:01:48.348Z,8.07
2018-12-30T12:04:19.240Z,8.11
2018-12-30T12:06:50.510Z,8.11
2018-12-30T12:09:21.467Z,8.11
2018-12-30T12:11:52.350Z,8.16
2018-12-30T12:14:23.258Z,8.19
2018-12-30T12:16:54.139Z,8.06
2018-12-30T12:19:25.067Z,8.03
2018-12-30T12:21:55.942Z,8.07
2018-12-30T12:24:26.837Z,8.06
2018-12-30T12:26:58.124Z,8.08
2018-12-30T12:29:29.045Z,7.93
2018-12-30T12:32:00.931Z,8.06
2018-12-30T12:34:32.154Z,8.11
2018-12-30T12:37:03.192Z,8.09
2018-12-30T12:39:34.133Z,8.16
2018-12-30T12:42:05.064Z,8.17
2018-12-30T12:44:35.943Z,8.18
2018-12-30T12:47:06.861Z,8.09
2018-12-30T12:49:37.739Z,8.10
2018-12-30T12:52:08.692Z,8.25
2018-12-30T12:54:39.638Z,8.14
2018-12-30T12:57:10.502Z,8.17
2018-12-30T12:59:41.433Z,8.19
2018-12-30T13:02:12.612Z,8.11
2018-12-30T13:04:43.513Z,8.24
2018-12-30T13:07:15.792Z,8.08
2018-12-30T13:09:46.976Z,8.11
2018-12-30T13:12:17.874Z,7.97
2018-12-30T13:14:48.809Z,8.03
2018-12-30T13:17:19.806Z,8.01
2018-12-30T13:19:50.685Z,8.00
2018-12-30T13:22:21.590Z,7.93
2018-12-30T13:24:52.793Z,8.01
2018-12-30T13:27:34.812Z,7.94
2018-12-30T13:30:06.510Z,7.96
2018-12-30T13:32:37.485Z,7.94
2018-12-30T13:35:08.500Z,7.97
2018-12-30T13:37:39.523Z,7.90
2018-12-30T13:40:10.417Z,7.92
2018-12-30T13:42:41.318Z,7.98
2018-12-30T13:45:12.231Z,8.03
2018-12-30T13:47:43.398Z,8.01
2018-12-30T13:50:14.333Z,8.00
2018-12-30T13:52:45.821Z,7.83
2018-12-30T13:55:16.997Z,7.92
2018-12-30T13:57:47.898Z,7.95
2018-12-30T14:00:18.783Z,7.95
2018-12-30T14:02:49.779Z,7.90
2018-12-30T14:05:20.664Z,7.87
2018-12-30T14:07:51.549Z,7.80
2018-12-30T14:10:22.435Z,7.87
2018-12-30T14:12:53.325Z,7.97
2018-12-30T14:15:24.271Z,7.94
2018-12-30T14:17:55.177Z,7.91
2018-12-30T14:20:26.171Z,7.95
2018-12-30T14:22:57.079Z,7.89
2018-12-30T14:25:27.964Z,7.95
2018-12-30T14:27:59.178Z,7.94
2018-12-30T14:30:30.085Z,7.79
2018-12-30T14:33:01.317Z,7.78
2018-12-30T14:35:32.208Z,7.83
2018-12-30T14:38:03.103Z,7.79
2018-12-30T14:40:34.504Z,7.71
2018-12-30T14:43:05.413Z,7.67
2018-12-30T14:45:36.372Z,7.73
2018-12-30T14:48:07.349Z,7.80
2018-12-30T14:50:38.226Z,7.80
2018-12-30T14:53:18.812Z,7.78
2018-12-30T14:55:42.079Z,7.72
2018-12-30T14:58:12.971Z,7.72
2018-12-30T15:00:44.376Z,7.83
2018-12-30T15:03:15.649Z,7.83
2018-12-30T15:05:46.562Z,7.71
2018-12-30T15:08:17.440Z,7.68
2018-12-30T15:10:48.390Z,7.66
2018-12-30T15:13:19.613Z,7.70
2018-12-30T15:15:50.544Z,7.64
2018-12-30T15:18:21.518Z,7.73
2018-12-30T15:20:52.394Z,7.84
2018-12-30T15:23:23.575Z,7.64
2018-12-30T15:25:54.843Z,7.68
2018-12-30T15:28:26.106Z,7.73
2018-12-30T15:30:57.355Z,7.73
2018-12-30T15:33:28.655Z,7.57
2018-12-30T15:35:59.519Z,7.63
2018-12-30T15:38:30.396Z,7.68
2018-12-30T15:41:01.308Z,7.58
2018-12-30T15:43:32.189Z,7.66
2018-12-30T15:46:03.394Z,7.59
2018-12-30T15:48:34.418Z,7.64
2018-12-30T15:51:05.339Z,7.72
2018-12-30T15:53:36.215Z,7.67
2018-12-30T15:56:07.145Z,7.64
2018-12-30T15:58:38.056Z,7.68
2018-12-30T16:01:09.269Z,7.63
2018-12-30T16:03:40.232Z,7.61
2018-12-30T16:06:11.180Z,7.68
2018-12-30T16:08:42.058Z,7.61
2018-12-30T16:11:13.075Z,7.56
2018-12-30T16:13:44.037Z,7.54
2018-12-30T16:16:14.957Z,7.51
2018-12-30T16:18:45.922Z,7.52
2018-12-30T16:21:16.800Z,7.55
2018-12-30T16:23:47.689Z,7.54
2018-12-30T16:26:18.657Z,7.41
2018-12-30T16:28:49.535Z,7.41
2018-12-30T16:31:27.889Z,7.26
2018-12-30T16:33:53.061Z,7.31
2018-12-30T16:36:24.313Z,7.41
2018-12-30T16:38:55.195Z,7.36
2018-12-30T16:41:26.134Z,7.37
2018-12-30T16:43:57.129Z,7.34
2018-12-30T16:46:28.047Z,7.43
2018-12-30T16:48:59.016Z,7.48
2018-12-30T16:51:30.358Z,7.40
2018-12-30T16:54:01.238Z,7.39
2018-12-30T16:56:32.166Z,7.45
2018-12-30T16:59:03.054Z,7.50
2018-12-30T17:01:33.930Z,7.50
2018-12-30T17:04:05.730Z,7.45
2018-12-30T17:06:36.621Z,7.39
2018-12-30T17:09:09.593Z,7.35
2018-12-30T17:11:40.551Z,7.36
2018-12-30T17:14:11.760Z,7.47
2018-12-30T17:16:42.682Z,7.49
2018-12-30T17:19:13.888Z,7.49
2018-12-30T17:21:44.755Z,7.52
2018-12-30T17:24:15.716Z,7.52
2018-12-30T17:26:46.658Z,7.54
2018-12-30T17:29:17.585Z,7.48
2018-12-30T17:31:48.510Z,7.32
2018-12-30T17:34:19.391Z,7.29
2018-12-30T17:36:50.302Z,7.49
2018-12-30T17:39:21.566Z,7.32
2018-12-30T17:41:52.479Z,7.42
2018-12-30T17:44:23.666Z,7.31
2018-12-30T17:46:54.605Z,7.49
2018-12-30T17:49:25.826Z,7.52
2018-12-30T17:51:56.807Z,7.50
2018-12-30T17:54:27.720Z,7.41
2018-12-30T17:56:58.690Z,7.35
2018-12-30T17:59:29.594Z,7.31
2018-12-30T18:02:00.806Z,7.23
2018-12-30T18:04:31.669Z,7.28
2018-12-30T18:07:02.900Z,7.25
2018-12-30T18:09:33.792Z,7.28
2018-12-30T18:12:04.750Z,7.36
2018-12-30T18:14:35.632Z,7.26
2018-12-30T18:17:06.555Z,7.28
2018-12-30T18:19:37.529Z,7.31
2018-12-30T18:22:08.452Z,7.32
2018-12-30T18:24:39.677Z,7.23
2018-12-30T18:27:10.851Z,7.21
2018-12-30T18:29:42.064Z,7.15
2018-12-30T18:32:13.312Z,7.16
2018-12-30T18:34:44.234Z,7.04
2018-12-30T18:37:15.197Z,7.20
2018-12-30T18:39:46.089Z,7.09
2018-12-30T18:42:17.007Z,7.19
2018-12-30T18:44:48.168Z,7.24
2018-12-30T18:47:19.109Z,7.13
2018-12-30T18:49:49.999Z,7.18
2018-12-30T18:52:20.892Z,7.18
2018-12-30T18:54:51.840Z,7.03
2018-12-30T18:57:23.023Z,7.31
2018-12-30T18:59:53.949Z,7.11
2018-12-30T19:02:24.869Z,7.22
2018-12-30T19:04:55.846Z,7.25
2018-12-30T19:07:27.128Z,7.20
2018-12-30T19:09:58.027Z,7.22
2018-12-30T19:12:29.131Z,7.18
2018-12-30T19:15:00.337Z,7.20
2018-12-30T19:17:31.221Z,7.13
2018-12-30T19:20:02.201Z,7.05
2018-12-30T19:22:33.378Z,7.06
2018-12-30T19:25:04.342Z,7.18
2018-12-30T19:27:35.229Z,7.02
2018-12-30T19:30:08.012Z,6.89
2018-12-30T19:32:38.903Z,7.08
2018-12-30T19:35:09.855Z,6.97
2018-12-30T19:37:40.835Z,7.05
2018-12-30T19:40:12.836Z,7.06
2018-12-30T19:42:43.808Z,6.97
2018-12-30T19:45:14.711Z,6.99
2018-12-30T19:47:45.968Z,7.02
2018-12-30T19:50:16.883Z,7.08
2018-12-30T19:52:47.917Z,6.98
2018-12-30T19:55:19.403Z,6.92
2018-12-30T19:57:50.953Z,6.79
2018-12-30T20:00:23.011Z,6.81
2018-12-30T20:02:54.271Z,6.82
2018-12-30T20:05:25.475Z,6.79
2018-12-30T20:07:56.493Z,6.65
2018-12-30T20:10:27.884Z,6.76
2018-12-30T20:12:59.387Z,6.67
2018-12-30T20:15:31.346Z,6.68
2018-12-30T20:18:02.980Z,6.63
2018-12-30T20:20:34.510Z,6.61
2018-12-30T20:23:06.563Z,6.60
2018-12-30T20:25:37.827Z,6.56
2018-12-30T20:28:09.421Z,6.67
2018-12-30T20:30:40.503Z,6.64
2018-12-30T20:33:11.856Z,6.54
2018-12-30T20:35:42.967Z,6.66
2018-12-30T20:38:13.991Z,6.55
2018-12-30T20:40:45.022Z,6.47
2018-12-30T20:43:16.034Z,6.40
2018-12-30T20:45:47.131Z,6.38
2018-12-30T20:48:18.389Z,6.30
2018-12-30T20:50:49.457Z,6.21
2018-12-30T20:53:20.464Z,6.13
2018-12-30T20:55:51.650Z,6.05
2018-12-30T20:58:22.894Z,6.07
2018-12-30T21:00:54.064Z,6.03
2018-12-30T21:03:25.025Z,5.95
2018-12-30T21:05:55.984Z,5.93
2018-12-30T21:08:27.107Z,5.94
2018-12-30T21:10:58.166Z,5.90
2018-12-30T21:13:29.117Z,5.96
2018-12-30T21:16:00.620Z,5.98
2018-12-30T21:18:31.523Z,5.96
2018-12-30T21:21:02.477Z,6.02
2018-12-30T21:23:33.394Z,6.01
2018-12-30T21:26:04.507Z,5.94
2018-12-30T21:28:35.522Z,5.94
2018-12-30T21:31:06.411Z,6.05
2018-12-30T21:33:43.616Z,6.05
2018-12-30T21:36:14.600Z,5.99
2018-12-30T21:38:45.609Z,6.09
2018-12-30T21:41:16.520Z,6.10
2018-12-30T21:43:47.461Z,6.12
2018-12-30T21:46:19.004Z,6.09
2018-12-30T21:48:49.919Z,6.18
2018-12-30T21:51:20.942Z,6.14
2018-12-30T21:53:51.946Z,6.06
2018-12-30T21:56:23.202Z,6.06
2018-12-30T21:58:54.118Z,6.16
2018-12-30T22:01:25.048Z,6.13
2018-12-30T22:03:55.949Z,6.17
2018-12-30T22:06:26.911Z,6.08
2018-12-30T22:08:57.778Z,6.05
2018-12-30T22:11:28.712Z,6.10
2018-12-30T22:13:59.893Z,6.16
2018-12-30T22:16:30.863Z,6.17
2018-12-30T22:19:01.835Z,6.25
2018-12-30T22:21:32.817Z,6.22
2018-12-30T22:24:03.774Z,6.22
2018-12-30T22:26:34.687Z,6.21
2018-12-30T22:29:05.970Z,6.18
2018-12-30T22:31:36.878Z,6.22
2018-12-30T22:34:07.795Z,6.14
2018-12-30T22:36:38.706Z,6.16
2018-12-30T22:39:09.981Z,6.13
2018-12-30T22:41:40.925Z,6.20
2018-12-30T22:44:11.798Z,6.13
2018-12-30T22:46:42.698Z,6.22
2018-12-30T22:49:14.013Z,6.12
2018-12-30T22:51:45.021Z,6.21
2018-12-30T22:54:16.365Z,6.08
2018-12-30T22:56:47.344Z,6.04
2018-12-30T22:59:18.268Z,6.00
2018-12-30T23:01:50.148Z,5.96
2018-12-30T23:04:21.039Z,5.92
2018-12-30T23:06:51.967Z,5.90
2018-12-30T23:09:23.157Z,5.88
2018-12-30T23:11:54.353Z,5.87
2018-12-30T23:14:25.292Z,5.87
2018-12-30T23:16:56.191Z,5.89
2018-12-30T23:19:27.155Z,5.90
2018-12-30T23:21:58.073Z,5.90
2018-12-30T23:24:29.235Z,5.86
2018-12-30T23:27:00.236Z,5.88
2018-12-30T23:29:31.527Z,5.89
2018-12-30T23:32:02.476Z,5.93
2018-12-30T23:34:33.382Z,6.04
2018-12-30T23:37:04.351Z,6.06
2018-12-30T23:39:35.232Z,6.13
2018-12-30T23:42:06.142Z,6.25
2018-12-30T23:44:37.068Z,6.40
2018-12-30T23:47:07.962Z,6.35
2018-12-30T23:49:39.127Z,6.36
2018-12-30T23:52:10.076Z,6.39
2018-12-30T23:54:41.010Z,6.53
2018-12-30T23:57:11.952Z,6.50
2018-12-30T23:59:43.252Z,6.48
